createdAt,value
2023-05-03T00:01:54.906Z,100694.47
2023-05-03T00:04:23.805Z,100698.47
2023-05-03T00:06:51.516Z,100698.13
2023-05-03T00:09:18.551Z,100701.28
2023-05-03T00:11:47.870Z,100697.28
2023-05-03T00:14:14.874Z,100700.59
2023-05-03T00:16:41.944Z,100701.06
2023-05-03T00:19:14.964Z,100700.72
2023-05-03T00:21:47.767Z,100696.03
2023-05-03T00:24:14.691Z,100697.38
2023-05-03T00:26:41.635Z,100700.69
2023-05-03T00:29:08.565Z,100699.31
2023-05-03T00:31:35.824Z,100694.31
2023-05-03T00:34:02.811Z,100694.81
2023-05-03T00:36:31.002Z,100706.63
2023-05-03T00:38:57.974Z,100697.25
2023-05-03T00:41:24.909Z,100702.09
2023-05-03T00:43:51.868Z,100699.91
2023-05-03T00:46:19.076Z,100699.22
2023-05-03T00:48:49.670Z,100690.72
2023-05-03T00:51:18.960Z,100691.88
2023-05-03T00:53:46.282Z,100692.19
2023-05-03T00:56:19.939Z,100687.19
2023-05-03T00:58:47.201Z,100682.13
2023-05-03T01:01:15.430Z,100680.63
2023-05-03T01:03:42.998Z,100689.78
2023-05-03T01:06:27.653Z,100689.25
2023-05-03T01:09:27.881Z,100680.06
2023-05-03T01:12:12.700Z,100681.38
2023-05-03T01:15:02.474Z,100676.38
2023-05-03T01:17:35.690Z,100673.03
2023-05-03T01:20:08.860Z,100669.84
2023-05-03T01:22:57.791Z,100671.00
2023-05-03T01:25:26.282Z,100661.66
2023-05-03T01:27:53.229Z,100661.00
2023-05-03T01:30:24.790Z,100655.84
2023-05-03T01:33:13.496Z,100653.47
2023-05-03T01:35:56.642Z,100648.47
2023-05-03T01:38:23.878Z,100661.94
2023-05-03T01:40:53.644Z,100656.91
2023-05-03T01:43:22.546Z,100657.06
2023-05-03T01:45:50.433Z,100659.91
2023-05-03T01:48:19.661Z,100660.91
2023-05-03T01:50:46.857Z,100666.50
2023-05-03T01:53:14.035Z,100669.50
2023-05-03T01:55:42.070Z,100661.81
2023-05-03T01:58:09.127Z,100662.97
2023-05-03T02:00:37.889Z,100658.78
2023-05-03T02:03:05.418Z,100666.91
2023-05-03T02:05:32.375Z,100661.06
2023-05-03T02:08:00.897Z,100658.72
2023-05-03T02:10:27.862Z,100664.34
2023-05-03T02:12:55.962Z,100660.31
2023-05-03T02:15:23.047Z,100660.63
2023-05-03T02:17:50.871Z,100660.09
2023-05-03T02:20:18.037Z,100663.19
2023-05-03T02:22:44.961Z,100662.69
2023-05-03T02:25:11.895Z,100671.94
2023-05-03T02:27:38.857Z,100672.41
2023-05-03T02:30:07.718Z,100667.41
2023-05-03T02:32:40.083Z,100658.06
2023-05-03T02:35:08.566Z,100662.00
2023-05-03T02:37:35.656Z,100665.81
2023-05-03T02:40:09.644Z,100660.78
2023-05-03T02:42:36.791Z,100665.59
2023-05-03T02:45:05.710Z,100668.53
2023-05-03T02:47:32.803Z,100671.50
2023-05-03T02:49:59.868Z,100664.81
2023-05-03T02:52:27.202Z,100669.44
2023-05-03T02:54:54.575Z,100674.19
2023-05-03T02:57:21.833Z,100671.03
2023-05-03T02:59:49.376Z,100670.31
2023-05-03T03:02:16.357Z,100669.94
2023-05-03T03:04:43.348Z,100673.72
2023-05-03T03:07:10.643Z,100677.50
2023-05-03T03:09:37.625Z,100678.78
2023-05-03T03:12:05.828Z,100685.22
2023-05-03T03:14:33.868Z,100676.88
2023-05-03T03:17:03.185Z,100678.84
2023-05-03T03:19:30.215Z,100686.97
2023-05-03T03:21:57.144Z,100680.94
2023-05-03T03:24:26.728Z,100685.56
2023-05-03T03:26:53.948Z,100680.25
2023-05-03T03:29:21.084Z,100685.56
2023-05-03T03:31:48.494Z,100680.41
2023-05-03T03:34:16.680Z,100681.25
2023-05-03T03:36:43.818Z,100680.25
2023-05-03T03:39:11.665Z,100679.28
2023-05-03T03:41:39.656Z,100676.63
2023-05-03T03:44:07.016Z,100673.81
2023-05-03T03:46:34.095Z,100670.19
2023-05-03T03:49:01.489Z,100672.72
2023-05-03T03:51:31.144Z,100677.03
2023-05-03T03:53:58.890Z,100676.03
2023-05-03T03:56:28.880Z,100674.91
2023-05-03T03:58:56.903Z,100669.47
2023-05-03T04:01:25.009Z,100667.50
2023-05-03T04:03:52.182Z,100674.47
2023-05-03T04:06:19.333Z,100669.00
2023-05-03T04:08:49.720Z,100675.97
2023-05-03T04:11:17.280Z,100676.84
2023-05-03T04:13:50.132Z,100671.53
2023-05-03T04:16:17.269Z,100679.34
2023-05-03T04:18:45.358Z,100670.53
2023-05-03T04:21:12.372Z,100666.91
2023-05-03T04:23:40.371Z,100675.69
2023-05-03T04:26:14.601Z,100674.84
2023-05-03T04:28:52.094Z,100675.00
2023-05-03T04:31:21.865Z,100679.63
2023-05-03T04:33:52.709Z,100684.91
2023-05-03T04:36:25.446Z,100684.09
2023-05-03T04:38:53.072Z,100684.09
2023-05-03T04:41:20.606Z,100687.72
2023-05-03T04:43:48.144Z,100684.41
2023-05-03T04:46:15.670Z,100689.72
2023-05-03T04:48:46.360Z,100696.84
2023-05-03T04:51:13.486Z,100695.00
2023-05-03T04:53:41.993Z,100700.31
2023-05-03T04:56:13.721Z,100706.47
2023-05-03T04:58:41.513Z,100704.78
2023-05-03T05:01:08.951Z,100709.28
2023-05-03T05:03:36.157Z,100701.16
2023-05-03T05:06:11.516Z,100694.03
2023-05-03T05:08:40.724Z,100700.84
2023-05-03T05:11:12.875Z,100697.91
2023-05-03T05:13:39.847Z,100694.94
2023-05-03T05:16:07.168Z,100702.47
2023-05-03T05:18:35.038Z,100696.72
2023-05-03T05:21:04.573Z,100690.97
2023-05-03T05:23:33.370Z,100699.31
2023-05-03T05:26:00.831Z,100696.22
2023-05-03T05:28:31.018Z,100702.88
2023-05-03T05:30:58.022Z,100704.28
2023-05-03T05:33:25.875Z,100706.50
2023-05-03T05:35:53.868Z,100707.84
2023-05-03T05:38:22.116Z,100707.25
2023-05-03T05:40:50.833Z,100713.78
2023-05-03T05:43:17.977Z,100708.69
2023-05-03T05:45:46.502Z,100710.75
2023-05-03T05:48:14.637Z,100708.16
2023-05-03T05:50:43.240Z,100710.88
2023-05-03T05:53:12.324Z,100716.28
2023-05-03T05:55:44.417Z,100710.72
2023-05-03T05:58:13.045Z,100711.47
2023-05-03T06:00:49.012Z,100710.22
2023-05-03T06:03:16.869Z,100723.25
2023-05-03T06:05:44.040Z,100719.19
2023-05-03T06:08:11.301Z,100718.78
2023-05-03T06:10:38.896Z,100717.38
2023-05-03T06:13:05.975Z,100718.47
2023-05-03T06:15:34.173Z,100716.00
2023-05-03T06:18:01.260Z,100713.88
2023-05-03T06:20:28.524Z,100703.91
2023-05-03T06:22:56.413Z,100707.28
2023-05-03T06:25:23.410Z,100705.31
2023-05-03T06:27:51.366Z,100699.16
2023-05-03T06:30:23.524Z,100701.16
2023-05-03T06:32:51.277Z,100701.34
2023-05-03T06:35:19.711Z,100708.50
2023-05-03T06:37:46.952Z,100707.00
2023-05-03T06:40:14.309Z,100708.00
2023-05-03T06:42:41.269Z,100712.69
2023-05-03T06:45:22.182Z,100716.16
2023-05-03T06:47:50.177Z,100713.00
2023-05-03T06:50:17.662Z,100707.16
2023-05-03T06:52:44.606Z,100708.16
2023-05-03T06:55:11.737Z,100703.13
2023-05-03T06:57:41.232Z,100694.41
2023-05-03T07:00:09.314Z,100691.19
2023-05-03T07:02:37.303Z,100694.13
2023-05-03T07:05:05.203Z,100690.91
2023-05-03T07:07:33.424Z,100695.03
2023-05-03T07:10:00.386Z,100687.44
2023-05-03T07:12:28.424Z,100693.88
2023-05-03T07:14:55.522Z,100697.25
2023-05-03T07:17:23.048Z,100700.47
2023-05-03T07:19:51.461Z,100700.81
2023-05-03T07:22:24.755Z,100698.50
2023-05-03T07:24:55.093Z,100695.94
2023-05-03T07:27:22.611Z,100695.41
2023-05-03T07:29:49.568Z,100691.53
2023-05-03T07:32:16.590Z,100694.00
2023-05-03T07:34:43.572Z,100694.78
2023-05-03T07:37:10.552Z,100687.75
2023-05-03T07:39:37.466Z,100692.72
2023-05-03T07:42:04.462Z,100688.78
2023-05-03T07:44:31.432Z,100699.88
2023-05-03T07:46:58.402Z,100690.97
2023-05-03T07:49:25.397Z,100696.03
2023-05-03T07:51:52.432Z,100693.06
2023-05-03T07:54:19.353Z,100691.75
2023-05-03T07:56:46.399Z,100691.25
2023-05-03T07:59:13.460Z,100692.19
2023-05-03T08:01:40.439Z,100692.25
2023-05-03T08:04:07.891Z,100693.34
2023-05-03T08:06:35.874Z,100702.91
2023-05-03T08:09:04.387Z,100696.50
2023-05-03T08:11:31.788Z,100700.06
2023-05-03T08:13:58.725Z,100695.31
2023-05-03T08:16:26.113Z,100704.22
2023-05-03T08:18:53.211Z,100703.25
2023-05-03T08:21:21.959Z,100705.53
2023-05-03T08:23:48.998Z,100710.09
2023-05-03T08:26:15.958Z,100713.63
2023-05-03T08:28:42.873Z,100714.47
2023-05-03T08:31:09.937Z,100715.75
2023-05-03T08:33:37.260Z,100705.84
2023-05-03T08:36:04.437Z,100713.50
2023-05-03T08:38:32.578Z,100711.63
2023-05-03T08:41:11.058Z,100701.69
2023-05-03T08:43:44.009Z,100702.13
2023-05-03T08:46:14.545Z,100697.97
2023-05-03T08:48:43.148Z,100697.56
2023-05-03T08:51:11.087Z,100690.72
2023-05-03T08:53:38.083Z,100694.63
2023-05-03T08:56:16.851Z,100687.38
2023-05-03T08:58:44.145Z,100690.50
2023-05-03T09:01:11.080Z,100695.44
2023-05-03T09:03:38.303Z,100687.56
2023-05-03T09:06:25.834Z,100691.09
2023-05-03T09:08:54.092Z,100694.22
2023-05-03T09:11:30.299Z,100691.91
2023-05-03T09:14:12.374Z,100690.44
2023-05-03T09:16:41.172Z,100688.38
2023-05-03T09:19:11.572Z,100691.47
2023-05-03T09:21:44.365Z,100691.03
2023-05-03T09:24:17.727Z,100687.09
2023-05-03T09:26:47.015Z,100686.25
2023-05-03T09:29:35.897Z,100688.72
2023-05-03T09:32:08.494Z,100694.09
2023-05-03T09:34:36.952Z,100687.59
2023-05-03T09:37:04.247Z,100677.81
2023-05-03T09:39:31.481Z,100686.44
2023-05-03T09:41:58.813Z,100682.16
2023-05-03T09:45:01.766Z,100683.28
2023-05-03T09:47:31.931Z,100676.97
2023-05-03T09:50:00.119Z,100679.44
2023-05-03T09:52:29.135Z,100672.69
2023-05-03T09:54:56.426Z,100679.72
2023-05-03T09:57:23.884Z,100674.69
2023-05-03T09:59:51.056Z,100676.34
2023-05-03T10:02:18.195Z,100664.69
2023-05-03T10:04:53.156Z,100667.56
2023-05-03T10:07:23.076Z,100663.81
2023-05-03T10:09:50.564Z,100665.47
2023-05-03T10:12:19.195Z,100663.38
2023-05-03T10:14:48.359Z,100654.16
2023-05-03T10:17:48.010Z,100653.38
2023-05-03T10:20:33.183Z,100648.81
2023-05-03T10:23:06.506Z,100637.75
2023-05-03T10:25:36.398Z,100643.34
2023-05-03T10:28:03.862Z,100639.75
2023-05-03T10:30:34.530Z,100633.00
2023-05-03T10:33:13.698Z,100625.41
2023-05-03T10:35:48.890Z,100615.44
2023-05-03T10:38:19.825Z,100617.56
2023-05-03T10:40:46.880Z,100620.72
2023-05-03T10:43:29.420Z,100607.72
2023-05-03T10:46:04.221Z,100609.31
2023-05-03T10:48:35.493Z,100613.00
2023-05-03T10:51:39.614Z,100615.91
2023-05-03T10:54:07.459Z,100602.44
2023-05-03T10:56:46.905Z,100592.22
2023-05-03T10:59:13.963Z,100598.16
2023-05-03T11:01:42.446Z,100598.47
2023-05-03T11:04:41.505Z,100595.75
2023-05-03T11:07:10.143Z,100595.69
2023-05-03T11:09:37.500Z,100595.22
2023-05-03T11:12:06.936Z,100601.81
2023-05-03T11:14:33.954Z,100594.69
2023-05-03T11:17:01.516Z,100593.59
2023-05-03T11:19:29.299Z,100593.59
2023-05-03T11:21:57.014Z,100597.38
2023-05-03T11:24:24.038Z,100591.84
2023-05-03T11:26:51.151Z,100587.69
2023-05-03T11:29:18.618Z,100583.66
2023-05-03T11:31:45.864Z,100577.03
2023-05-03T11:34:14.498Z,100581.50
2023-05-03T11:36:42.441Z,100574.41
2023-05-03T11:39:10.981Z,100585.22
2023-05-03T11:41:38.010Z,100574.53
2023-05-03T11:44:16.404Z,100579.25
2023-05-03T11:46:45.754Z,100569.81
2023-05-03T11:49:19.521Z,100560.31
2023-05-03T11:51:49.802Z,100561.63
2023-05-03T11:54:24.930Z,100558.59
2023-05-03T11:56:58.979Z,100545.09
2023-05-03T11:59:39.704Z,100545.28
2023-05-03T12:02:09.711Z,100545.66
2023-05-03T12:04:41.540Z,100548.13
2023-05-03T12:07:12.981Z,100554.88
2023-05-03T12:09:41.475Z,100550.75
2023-05-03T12:12:10.548Z,100549.66
2023-05-03T12:14:59.744Z,100542.22
2023-05-03T12:17:44.340Z,100542.09
2023-05-03T12:22:57.475Z,100542.72
2023-05-03T12:25:27.224Z,100550.72
2023-05-03T12:30:33.577Z,100542.44
2023-05-03T12:33:04.228Z,100534.06
2023-05-03T12:35:34.117Z,100530.94
2023-05-03T12:38:04.328Z,100521.97
2023-05-03T12:40:34.754Z,100525.72
2023-05-03T12:43:03.339Z,100521.72
2023-05-03T12:45:34.378Z,100518.06
2023-05-03T12:48:02.768Z,100510.97
2023-05-03T12:50:32.047Z,100509.25
2023-05-03T12:53:02.595Z,100509.66
2023-05-03T12:55:35.192Z,100505.25
2023-05-03T12:58:39.424Z,100496.13
2023-05-03T13:01:37.140Z,100498.34
2023-05-03T13:03:43.662Z,100485.56
2023-05-03T13:06:14.143Z,100491.00
2023-05-03T13:08:49.669Z,100487.53
2023-05-03T13:11:19.761Z,100484.53
2023-05-03T13:13:47.063Z,100484.03
2023-05-03T13:16:14.381Z,100467.44
2023-05-03T13:18:42.758Z,100470.78
2023-05-03T13:21:10.962Z,100475.03
2023-05-03T13:23:38.130Z,100475.66
2023-05-03T13:26:06.881Z,100466.56
2023-05-03T13:28:33.812Z,100455.69
2023-05-03T13:31:00.789Z,100457.28
2023-05-03T13:33:29.201Z,100460.81
2023-05-03T13:35:56.566Z,100458.69
2023-05-03T13:38:23.661Z,100452.19
2023-05-03T13:40:51.032Z,100452.31
2023-05-03T13:43:17.997Z,100443.91
2023-05-03T13:45:45.078Z,100443.94
2023-05-03T13:48:18.606Z,100428.31
2023-05-03T13:50:46.294Z,100431.53
2023-05-03T13:53:13.310Z,100432.50
2023-05-03T13:55:43.191Z,100426.94
2023-05-03T13:58:10.181Z,100427.03
2023-05-03T14:00:37.284Z,100414.81
2023-05-03T14:03:04.574Z,100411.47
2023-05-03T14:05:31.676Z,100413.38
2023-05-03T14:07:59.718Z,100405.44
2023-05-03T14:10:27.483Z,100407.13
2023-05-03T14:12:54.550Z,100410.66
2023-05-03T14:15:21.602Z,100411.88
2023-05-03T14:17:48.740Z,100403.16
2023-05-03T14:20:17.330Z,100407.47
2023-05-03T14:22:45.529Z,100408.00
2023-05-03T14:25:12.733Z,100406.69
2023-05-03T14:27:40.132Z,100405.19
2023-05-03T14:30:09.855Z,100399.22
2023-05-03T14:32:36.828Z,100399.81
2023-05-03T14:35:03.972Z,100389.44
2023-05-03T14:37:31.143Z,100395.97
2023-05-03T14:39:58.090Z,100390.38
2023-05-03T14:42:25.038Z,100394.59
2023-05-03T14:44:52.000Z,100386.16
2023-05-03T14:47:19.043Z,100407.50
2023-05-03T14:49:46.125Z,100388.06
2023-05-03T14:52:13.268Z,100388.09
2023-05-03T14:54:40.250Z,100383.84
2023-05-03T14:57:07.611Z,100385.72
2023-05-03T14:59:35.032Z,100391.47
2023-05-03T15:02:02.428Z,100396.16
2023-05-03T15:04:29.679Z,100380.47
2023-05-03T15:07:02.514Z,100386.91
2023-05-03T15:09:33.688Z,100385.84
2023-05-03T15:12:01.935Z,100390.53
2023-05-03T15:14:29.117Z,100390.78
2023-05-03T15:16:56.264Z,100389.56
2023-05-03T15:19:23.340Z,100388.31
2023-05-03T15:21:52.281Z,100385.34
2023-05-03T15:24:19.392Z,100385.03
2023-05-03T15:26:49.736Z,100389.72
2023-05-03T15:29:16.826Z,100387.28
2023-05-03T15:31:44.066Z,100379.88
2023-05-03T15:34:12.120Z,100384.97
2023-05-03T15:36:40.397Z,100381.44
2023-05-03T15:39:07.732Z,100381.63
2023-05-03T15:41:34.666Z,100381.72
2023-05-03T15:44:05.063Z,100368.97
2023-05-03T15:46:33.735Z,100373.41
2023-05-03T15:49:01.094Z,100365.66
2023-05-03T15:51:29.225Z,100371.84
2023-05-03T15:53:56.217Z,100363.56
2023-05-03T15:56:23.409Z,100354.75
2023-05-03T15:58:50.505Z,100359.38
2023-05-03T16:01:18.552Z,100355.00
2023-05-03T16:03:46.344Z,100353.63
2023-05-03T16:06:17.972Z,100352.72
2023-05-03T16:08:45.576Z,100361.44
2023-05-03T16:11:13.291Z,100357.22
2023-05-03T16:13:40.246Z,100361.78
2023-05-03T16:16:07.374Z,100355.78
2023-05-03T16:18:34.573Z,100352.81
2023-05-03T16:21:02.436Z,100353.75
2023-05-03T16:23:29.527Z,100359.44
2023-05-03T16:25:56.566Z,100362.47
2023-05-03T16:28:23.537Z,100347.06
2023-05-03T16:30:50.513Z,100348.66
2023-05-03T16:33:18.027Z,100345.19
2023-05-03T16:35:44.955Z,100343.72
2023-05-03T16:38:11.872Z,100338.53
2023-05-03T16:40:40.432Z,100347.47
2023-05-03T16:43:07.845Z,100343.69
2023-05-03T16:45:34.964Z,100342.44
2023-05-03T16:48:04.774Z,100332.47
2023-05-03T16:50:33.148Z,100334.38
2023-05-03T16:53:00.282Z,100329.56
2023-05-03T16:55:27.226Z,100326.97
2023-05-03T16:57:54.150Z,100327.88
2023-05-03T17:00:21.799Z,100325.44
2023-05-03T17:02:49.153Z,100327.53
2023-05-03T17:05:16.304Z,100335.31
2023-05-03T17:07:43.289Z,100334.88
2023-05-03T17:10:10.583Z,100326.41
2023-05-03T17:12:37.534Z,100326.72
2023-05-03T17:15:05.220Z,100324.28
2023-05-03T17:17:32.686Z,100328.34
2023-05-03T17:19:59.787Z,100330.81
2023-05-03T17:22:26.723Z,100332.06
2023-05-03T17:24:55.173Z,100333.13
2023-05-03T17:27:24.117Z,100330.31
2023-05-03T17:29:51.284Z,100330.38
2023-05-03T17:32:18.225Z,100333.66
2023-05-03T17:34:45.278Z,100332.47
2023-05-03T17:37:12.409Z,100333.53
2023-05-03T17:39:39.659Z,100336.00
2023-05-03T17:42:06.762Z,100335.38
2023-05-03T17:44:34.000Z,100343.84
2023-05-03T17:47:01.061Z,100344.31
2023-05-03T17:49:28.056Z,100344.13
2023-05-03T17:51:55.038Z,100336.66
2023-05-03T17:54:22.088Z,100339.44
2023-05-03T17:56:49.646Z,100339.38
2023-05-03T17:59:16.928Z,100330.50
2023-05-03T18:01:43.910Z,100332.75
2023-05-03T18:04:10.901Z,100333.50
2023-05-03T18:06:37.892Z,100337.97
2023-05-03T18:09:07.191Z,100335.28
2023-05-03T18:11:34.306Z,100338.78
2023-05-03T18:14:01.247Z,100337.56
2023-05-03T18:16:28.715Z,100339.56
2023-05-03T18:18:55.698Z,100334.16
2023-05-03T18:21:23.433Z,100345.56
2023-05-03T18:23:50.376Z,100332.22
2023-05-03T18:26:17.402Z,100334.03
2023-05-03T18:28:44.310Z,100336.69
2023-05-03T18:31:11.512Z,100335.16
2023-05-03T18:33:40.037Z,100334.50
2023-05-03T18:36:11.429Z,100344.41
2023-05-03T18:38:41.767Z,100345.03
2023-05-03T18:41:13.823Z,100350.25
2023-05-03T18:43:42.986Z,100350.59
2023-05-03T18:46:10.779Z,100355.06
2023-05-03T18:48:38.008Z,100347.75
2023-05-03T18:51:05.278Z,100353.00
2023-05-03T18:53:34.257Z,100350.06
2023-05-03T18:56:02.819Z,100354.19
2023-05-03T18:58:31.384Z,100346.13
2023-05-03T19:01:00.099Z,100352.69
2023-05-03T19:03:30.338Z,100361.69
2023-05-03T19:06:03.739Z,100352.81
2023-05-03T19:08:31.580Z,100357.22
2023-05-03T19:11:10.484Z,100358.28
2023-05-03T19:13:37.808Z,100356.78
2023-05-03T19:16:05.566Z,100359.66
2023-05-03T19:18:32.592Z,100361.66
2023-05-03T19:20:59.920Z,100368.84
2023-05-03T19:23:27.204Z,100364.63
2023-05-03T19:25:54.271Z,100365.34
2023-05-03T19:28:21.322Z,100366.28
2023-05-03T19:30:51.543Z,100365.97
2023-05-03T19:33:19.870Z,100369.34
2023-05-03T19:35:47.456Z,100377.09
2023-05-03T19:38:14.596Z,100375.94
2023-05-03T19:40:41.535Z,100367.28
2023-05-03T19:43:08.551Z,100370.44
2023-05-03T19:45:42.103Z,100366.38
2023-05-03T19:48:10.254Z,100373.44
2023-05-03T19:50:37.419Z,100364.78
2023-05-03T19:53:04.393Z,100369.16
2023-05-03T19:55:31.324Z,100367.56
2023-05-03T19:57:58.321Z,100372.75
2023-05-03T20:00:26.946Z,100367.38
2023-05-03T20:02:54.602Z,100369.03
2023-05-03T20:05:21.985Z,100365.09
2023-05-03T20:07:49.113Z,100364.13
2023-05-03T20:10:16.136Z,100368.25
2023-05-03T20:12:43.095Z,100367.03
2023-05-03T20:15:11.338Z,100359.78
2023-05-03T20:17:38.619Z,100361.28
2023-05-03T20:20:12.705Z,100364.59
2023-05-03T20:22:39.680Z,100359.63
2023-05-03T20:25:07.444Z,100356.53
2023-05-03T20:27:34.375Z,100354.28
2023-05-03T20:30:01.537Z,100360.28
2023-05-03T20:32:28.603Z,100350.97
2023-05-03T20:34:55.759Z,100352.22
2023-05-03T20:37:22.775Z,100346.44
2023-05-03T20:39:49.716Z,100350.16
2023-05-03T20:42:16.641Z,100349.75
2023-05-03T20:44:43.674Z,100345.59
2023-05-03T20:47:10.636Z,100353.91
2023-05-03T20:49:39.927Z,100343.56
2023-05-03T20:52:06.888Z,100340.25
2023-05-03T20:54:33.913Z,100340.66
2023-05-03T20:57:01.452Z,100342.75
2023-05-03T20:59:29.027Z,100350.19
2023-05-03T21:01:56.463Z,100340.91
2023-05-03T21:04:26.611Z,100344.00
2023-05-03T21:06:53.664Z,100334.50
2023-05-03T21:09:20.689Z,100348.16
2023-05-03T21:11:47.660Z,100338.84
2023-05-03T21:14:14.760Z,100341.94
2023-05-03T21:16:41.820Z,100342.34
2023-05-03T21:19:08.842Z,100342.78
2023-05-03T21:21:35.754Z,100341.31
2023-05-03T21:24:02.797Z,100339.88
2023-05-03T21:26:30.378Z,100342.97
2023-05-03T21:28:57.699Z,100346.88
2023-05-03T21:31:24.773Z,100347.47
2023-05-03T21:33:51.803Z,100339.00
2023-05-03T21:36:18.850Z,100342.31
2023-05-03T21:38:45.797Z,100348.09
2023-05-03T21:41:13.554Z,100350.16
2023-05-03T21:43:40.519Z,100342.72
2023-05-03T21:46:08.465Z,100339.41
2023-05-03T21:48:37.226Z,100338.78
2023-05-03T21:51:05.719Z,100333.00
2023-05-03T21:53:33.323Z,100330.72
2023-05-03T21:56:00.389Z,100331.13
2023-05-03T21:58:27.437Z,100321.44
2023-05-03T22:00:54.433Z,100322.03
2023-05-03T22:03:21.422Z,100316.22
2023-05-03T22:05:50.386Z,100318.31
2023-05-03T22:08:18.382Z,100309.63
2023-05-03T22:10:46.343Z,100308.97
2023-05-03T22:13:13.449Z,100302.19
2023-05-03T22:15:42.913Z,100308.59
2023-05-03T22:18:10.149Z,100301.78
2023-05-03T22:20:37.073Z,100306.72
2023-05-03T22:23:04.488Z,100300.91
2023-05-03T22:25:32.391Z,100308.56
2023-05-03T22:27:59.589Z,100296.38
2023-05-03T22:30:27.338Z,100296.75
2023-05-03T22:32:54.303Z,100296.75
2023-05-03T22:35:21.319Z,100297.19
2023-05-03T22:37:48.298Z,100300.03
2023-05-03T22:40:15.261Z,100302.94
2023-05-03T22:42:42.385Z,100302.31
2023-05-03T22:45:09.897Z,100306.88
2023-05-03T22:47:36.878Z,100301.72
2023-05-03T22:50:04.361Z,100297.56
2023-05-03T22:52:32.044Z,100304.16
2023-05-03T22:55:00.441Z,100299.19
2023-05-03T22:57:27.403Z,100293.41
2023-05-03T22:59:54.508Z,100304.53
2023-05-03T23:02:22.050Z,100301.22
2023-05-03T23:04:49.021Z,100297.09
2023-05-03T23:07:15.962Z,100300.16
2023-05-03T23:09:42.878Z,100296.88
2023-05-03T23:12:09.949Z,100290.06
2023-05-03T23:14:38.903Z,100292.31
2023-05-03T23:17:05.877Z,100287.97
2023-05-03T23:19:33.733Z,100292.88
2023-05-03T23:22:00.669Z,100292.06
2023-05-03T23:24:27.579Z,100280.72
2023-05-03T23:26:54.504Z,100288.13
2023-05-03T23:29:22.260Z,100290.16
2023-05-03T23:31:49.593Z,100294.88
2023-05-03T23:34:17.057Z,100280.03
2023-05-03T23:36:43.983Z,100285.78
2023-05-03T23:39:11.060Z,100282.47
2023-05-03T23:41:37.979Z,100278.97
2023-05-03T23:44:05.115Z,100277.50
2023-05-03T23:46:33.729Z,100284.94
2023-05-03T23:49:00.838Z,100282.44
2023-05-03T23:51:27.826Z,100280.16
2023-05-03T23:53:54.750Z,100279.53
2023-05-03T23:56:21.693Z,100280.97
2023-05-03T23:58:48.710Z,100280.31
